sensor_id;sensor_type;location;lat;lon;timestamp;P1;durP1;ratioP1;P2;durP2;ratioP2
974;SDS011;6115;49.296;10.602;2024-03-22T00:04:37;86.40;;;18.27;;
974;SDS011;6115;49.296;10.602;2024-03-22T00:09:37;75.10;;;16.17;;
974;SDS011;6115;49.296;10.602;2024-03-22T00:14:38;73.67;;;16.20;;
974;SDS011;6115;49.296;10.602;2024-03-22T00:19:38;77.93;;;16.93;;
974;SDS011;6115;49.296;10.602;2024-03-22T00:24:39;74.50;;;17.57;;
974;SDS011;6115;49.296;10.602;2024-03-22T00:29:39;76.40;;;17.20;;
974;SDS011;6115;49.296;10.602;2024-03-22T00:34:40;74.50;;;17.00;;
974;SDS011;6115;49.296;10.602;2024-03-22T00:39:41;74.57;;;17.87;;
974;SDS011;6115;49.296;10.602;2024-03-22T00:44:41;74.37;;;17.33;;
974;SDS011;6115;49.296;10.602;2024-03-22T00:49:42;73.67;;;16.93;;
974;SDS011;6115;49.296;10.602;2024-03-22T00:54:42;73.73;;;15.73;;
974;SDS011;6115;49.296;10.602;2024-03-22T00:59:43;75.30;;;16.13;;
974;SDS011;6115;49.296;10.602;2024-03-22T01:04:44;76.00;;;15.93;;
974;SDS011;6115;49.296;10.602;2024-03-22T01:09:44;74.47;;;16.40;;
974;SDS011;6115;49.296;10.602;2024-03-22T01:14:45;73.47;;;15.80;;
974;SDS011;6115;49.296;10.602;2024-03-22T01:19:45;77.37;;;17.60;;
974;SDS011;6115;49.296;10.602;2024-03-22T01:24:46;74.53;;;16.73;;
974;SDS011;6115;49.296;10.602;2024-03-22T01:29:46;76.40;;;16.87;;
974;SDS011;6115;49.296;10.602;2024-03-22T01:34:47;76.73;;;18.50;;
974;SDS011;6115;49.296;10.602;2024-03-22T01:39:48;73.47;;;16.20;;
974;SDS011;6115;49.296;10.602;2024-03-22T01:44:48;75.27;;;16.67;;
974;SDS011;6115;49.296;10.602;2024-03-22T01:49:50;77.27;;;19.07;;
974;SDS011;6115;49.296;10.602;2024-03-22T01:54:52;73.33;;;16.00;;
974;SDS011;6115;49.296;10.602;2024-03-22T01:59:53;76.80;;;18.30;;
974;SDS011;6115;49.296;10.602;2024-03-22T02:04:56;73.70;;;16.20;;
974;SDS011;6115;49.296;10.602;2024-03-22T02:09:56;78.33;;;20.30;;
974;SDS011;6115;49.296;10.602;2024-03-22T02:14:57;77.07;;;17.60;;
974;SDS011;6115;49.296;10.602;2024-03-22T02:19:58;79.17;;;18.50;;
974;SDS011;6115;49.296;10.602;2024-03-22T02:24:59;77.60;;;18.03;;
974;SDS011;6115;49.296;10.602;2024-03-22T02:30:00;75.13;;;17.73;;
974;SDS011;6115;49.296;10.602;2024-03-22T02:35:02;74.13;;;18.20;;
974;SDS011;6115;49.296;10.602;2024-03-22T02:40:03;76.77;;;18.77;;
974;SDS011;6115;49.296;10.602;2024-03-22T02:45:04;81.43;;;19.73;;
974;SDS011;6115;49.296;10.602;2024-03-22T02:50:05;74.40;;;18.30;;
974;SDS011;6115;49.296;10.602;2024-03-22T02:55:06;77.87;;;21.50;;
974;SDS011;6115;49.296;10.602;2024-03-22T03:00:07;79.73;;;22.00;;
974;SDS011;6115;49.296;10.602;2024-03-22T03:05:08;79.93;;;23.57;;
974;SDS011;6115;49.296;10.602;2024-03-22T03:10:09;75.97;;;21.67;;
974;SDS011;6115;49.296;10.602;2024-03-22T03:15:10;89.50;;;22.30;;
974;SDS011;6115;49.296;10.602;2024-03-22T03:20:11;75.97;;;21.70;;
974;SDS011;6115;49.296;10.602;2024-03-22T03:25:13;76.70;;;21.10;;
974;SDS011;6115;49.296;10.602;2024-03-22T03:30:14;80.47;;;24.37;;
974;SDS011;6115;49.296;10.602;2024-03-22T03:35:14;77.03;;;23.57;;
974;SDS011;6115;49.296;10.602;2024-03-22T03:40:15;77.80;;;23.57;;
974;SDS011;6115;49.296;10.602;2024-03-22T03:45:15;78.00;;;23.80;;
974;SDS011;6115;49.296;10.602;2024-03-22T03:50:16;77.90;;;23.70;;
974;SDS011;6115;49.296;10.602;2024-03-22T03:55:16;77.13;;;22.27;;
974;SDS011;6115;49.296;10.602;2024-03-22T04:00:18;79.83;;;25.67;;
974;SDS011;6115;49.296;10.602;2024-03-22T04:05:19;80.50;;;26.57;;
974;SDS011;6115;49.296;10.602;2024-03-22T04:10:20;78.20;;;25.03;;
974;SDS011;6115;49.296;10.602;2024-03-22T04:15:21;79.70;;;25.20;;
974;SDS011;6115;49.296;10.602;2024-03-22T04:20:22;80.63;;;25.63;;
974;SDS011;6115;49.296;10.602;2024-03-22T04:25:22;77.20;;;25.37;;
974;SDS011;6115;49.296;10.602;2024-03-22T04:30:23;79.90;;;26.00;;
974;SDS011;6115;49.296;10.602;2024-03-22T04:35:23;85.37;;;27.10;;
974;SDS011;6115;49.296;10.602;2024-03-22T04:40:24;80.10;;;26.13;;
974;SDS011;6115;49.296;10.602;2024-03-22T04:45:25;77.20;;;24.90;;
974;SDS011;6115;49.296;10.602;2024-03-22T04:50:25;77.60;;;25.00;;
974;SDS011;6115;49.296;10.602;2024-03-22T04:55:26;78.20;;;25.23;;
974;SDS011;6115;49.296;10.602;2024-03-22T05:00:27;78.20;;;25.77;;
974;SDS011;6115;49.296;10.602;2024-03-22T05:05:28;78.30;;;26.07;;
974;SDS011;6115;49.296;10.602;2024-03-22T05:10:32;78.30;;;24.90;;
974;SDS011;6115;49.296;10.602;2024-03-22T05:15:33;80.93;;;26.30;;
974;SDS011;6115;49.296;10.602;2024-03-22T05:20:33;79.70;;;26.57;;
974;SDS011;6115;49.296;10.602;2024-03-22T05:25:34;77.20;;;24.73;;
974;SDS011;6115;49.296;10.602;2024-03-22T05:30:35;81.80;;;29.20;;
974;SDS011;6115;49.296;10.602;2024-03-22T05:35:35;81.23;;;28.00;;
974;SDS011;6115;49.296;10.602;2024-03-22T05:40:36;81.27;;;25.23;;
974;SDS011;6115;49.296;10.602;2024-03-22T05:45:38;84.80;;;27.47;;
974;SDS011;6115;49.296;10.602;2024-03-22T05:50:40;81.43;;;26.73;;
974;SDS011;6115;49.296;10.602;2024-03-22T05:55:42;77.17;;;24.30;;
974;SDS011;6115;49.296;10.602;2024-03-22T06:00:43;77.80;;;25.50;;
974;SDS011;6115;49.296;10.602;2024-03-22T06:05:46;79.47;;;27.63;;
974;SDS011;6115;49.296;10.602;2024-03-22T06:10:47;90.83;;;28.20;;
974;SDS011;6115;49.296;10.602;2024-03-22T06:15:50;80.90;;;26.57;;
974;SDS011;6115;49.296;10.602;2024-03-22T06:20:51;78.80;;;24.73;;
974;SDS011;6115;49.296;10.602;2024-03-22T06:25:54;78.10;;;24.83;;
974;SDS011;6115;49.296;10.602;2024-03-22T06:30:55;77.70;;;24.10;;
974;SDS011;6115;49.296;10.602;2024-03-22T06:35:56;78.17;;;24.70;;
974;SDS011;6115;49.296;10.602;2024-03-22T06:40:56;77.47;;;25.43;;
974;SDS011;6115;49.296;10.602;2024-03-22T06:45:58;77.20;;;24.33;;
974;SDS011;6115;49.296;10.602;2024-03-22T06:50:59;80.87;;;27.40;;
974;SDS011;6115;49.296;10.602;2024-03-22T06:55:59;78.27;;;25.60;;
974;SDS011;6115;49.296;10.602;2024-03-22T07:01:00;84.27;;;27.87;;
974;SDS011;6115;49.296;10.602;2024-03-22T07:06:01;80.63;;;29.00;;
974;SDS011;6115;49.296;10.602;2024-03-22T07:11:05;84.87;;;31.60;;
974;SDS011;6115;49.296;10.602;2024-03-22T07:16:06;81.80;;;29.20;;
974;SDS011;6115;49.296;10.602;2024-03-22T07:21:07;81.60;;;26.00;;
974;SDS011;6115;49.296;10.602;2024-03-22T07:26:07;78.80;;;22.73;;
974;SDS011;6115;49.296;10.602;2024-03-22T07:31:08;78.93;;;22.40;;
974;SDS011;6115;49.296;10.602;2024-03-22T07:36:08;82.63;;;22.77;;
974;SDS011;6115;49.296;10.602;2024-03-22T07:41:09;77.20;;;21.90;;
974;SDS011;6115;49.296;10.602;2024-03-22T07:46:09;81.00;;;21.73;;
974;SDS011;6115;49.296;10.602;2024-03-22T07:51:10;77.70;;;19.30;;
974;SDS011;6115;49.296;10.602;2024-03-22T07:56:11;79.10;;;18.33;;
974;SDS011;6115;49.296;10.602;2024-03-22T08:01:12;78.00;;;17.27;;
974;SDS011;6115;49.296;10.602;2024-03-22T08:06:13;82.77;;;22.13;;
974;SDS011;6115;49.296;10.602;2024-03-22T08:11:13;84.03;;;24.57;;
974;SDS011;6115;49.296;10.602;2024-03-22T08:16:14;80.17;;;20.37;;
974;SDS011;6115;49.296;10.602;2024-03-22T08:21:14;77.20;;;17.57;;
974;SDS011;6115;49.296;10.602;2024-03-22T08:26:15;75.70;;;16.90;;
974;SDS011;6115;49.296;10.602;2024-03-22T08:31:15;77.40;;;16.17;;
974;SDS011;6115;49.296;10.602;2024-03-22T08:36:17;79.13;;;17.10;;
974;SDS011;6115;49.296;10.602;2024-03-22T08:41:17;76.90;;;14.73;;
974;SDS011;6115;49.296;10.602;2024-03-22T08:46:18;75.80;;;17.00;;
974;SDS011;6115;49.296;10.602;2024-03-22T08:51:21;79.30;;;19.30;;
974;SDS011;6115;49.296;10.602;2024-03-22T08:56:21;76.77;;;19.20;;
974;SDS011;6115;49.296;10.602;2024-03-22T09:01:22;76.17;;;17.83;;
974;SDS011;6115;49.296;10.602;2024-03-22T09:06:23;74.07;;;17.97;;
974;SDS011;6115;49.296;10.602;2024-03-22T09:11:24;74.03;;;14.47;;
974;SDS011;6115;49.296;10.602;2024-03-22T09:16:26;74.60;;;15.90;;
974;SDS011;6115;49.296;10.602;2024-03-22T09:21:29;71.47;;;12.97;;
974;SDS011;6115;49.296;10.602;2024-03-22T09:26:34;80.93;;;14.97;;
974;SDS011;6115;49.296;10.602;2024-03-22T09:31:35;73.37;;;12.13;;
974;SDS011;6115;49.296;10.602;2024-03-22T09:36:35;71.00;;;11.90;;
974;SDS011;6115;49.296;10.602;2024-03-22T09:41:43;71.40;;;11.70;;
974;SDS011;6115;49.296;10.602;2024-03-22T09:46:50;68.30;;;10.83;;
974;SDS011;6115;49.296;10.602;2024-03-22T09:51:51;71.80;;;10.53;;
974;SDS011;6115;49.296;10.602;2024-03-22T09:56:52;73.00;;;10.53;;
974;SDS011;6115;49.296;10.602;2024-03-22T10:01:55;71.00;;;8.90;;
974;SDS011;6115;49.296;10.602;2024-03-22T10:06:58;68.97;;;9.97;;
974;SDS011;6115;49.296;10.602;2024-03-22T10:11:58;71.50;;;11.50;;
974;SDS011;6115;49.296;10.602;2024-03-22T10:16:59;70.67;;;12.10;;
974;SDS011;6115;49.296;10.602;2024-03-22T10:22:00;70.60;;;11.10;;
974;SDS011;6115;49.296;10.602;2024-03-22T10:27:01;68.70;;;10.47;;
974;SDS011;6115;49.296;10.602;2024-03-22T10:32:02;68.73;;;9.83;;
974;SDS011;6115;49.296;10.602;2024-03-22T10:37:03;69.80;;;10.30;;
974;SDS011;6115;49.296;10.602;2024-03-22T10:42:04;69.77;;;10.33;;
974;SDS011;6115;49.296;10.602;2024-03-22T10:47:04;72.00;;;10.27;;
974;SDS011;6115;49.296;10.602;2024-03-22T10:52:07;69.93;;;10.33;;
974;SDS011;6115;49.296;10.602;2024-03-22T10:57:11;69.20;;;9.83;;
974;SDS011;6115;49.296;10.602;2024-03-22T11:02:14;67.13;;;8.90;;
974;SDS011;6115;49.296;10.602;2024-03-22T11:07:20;69.67;;;10.30;;
974;SDS011;6115;49.296;10.602;2024-03-22T11:12:21;68.67;;;9.67;;
974;SDS011;6115;49.296;10.602;2024-03-22T11:17:23;73.43;;;10.97;;
974;SDS011;6115;49.296;10.602;2024-03-22T11:22:25;68.80;;;9.67;;
974;SDS011;6115;49.296;10.602;2024-03-22T11:27:26;70.30;;;9.90;;
974;SDS011;6115;49.296;10.602;2024-03-22T11:32:27;67.33;;;8.80;;
974;SDS011;6115;49.296;10.602;2024-03-22T11:37:28;68.30;;;9.30;;
974;SDS011;6115;49.296;10.602;2024-03-22T11:42:29;66.87;;;8.20;;
974;SDS011;6115;49.296;10.602;2024-03-22T11:47:29;67.70;;;9.10;;
974;SDS011;6115;49.296;10.602;2024-03-22T11:52:30;66.37;;;8.10;;
974;SDS011;6115;49.296;10.602;2024-03-22T11:57:31;66.17;;;8.70;;
974;SDS011;6115;49.296;10.602;2024-03-22T12:02:32;66.07;;;8.50;;
974;SDS011;6115;49.296;10.602;2024-03-22T12:07:34;68.20;;;9.03;;
974;SDS011;6115;49.296;10.602;2024-03-22T12:12:35;67.07;;;10.70;;
974;SDS011;6115;49.296;10.602;2024-03-22T12:17:36;66.20;;;9.30;;
974;SDS011;6115;49.296;10.602;2024-03-22T12:22:37;66.57;;;10.40;;
974;SDS011;6115;49.296;10.602;2024-03-22T12:27:38;66.97;;;10.17;;
974;SDS011;6115;49.296;10.602;2024-03-22T12:32:38;65.70;;;9.17;;
974;SDS011;6115;49.296;10.602;2024-03-22T12:37:39;65.57;;;8.90;;
974;SDS011;6115;49.296;10.602;2024-03-22T12:42:40;65.80;;;8.70;;
974;SDS011;6115;49.296;10.602;2024-03-22T12:47:41;64.47;;;8.50;;
974;SDS011;6115;49.296;10.602;2024-03-22T12:52:41;66.80;;;9.17;;
974;SDS011;6115;49.296;10.602;2024-03-22T12:57:44;65.27;;;9.00;;
974;SDS011;6115;49.296;10.602;2024-03-22T13:02:45;64.80;;;8.07;;
974;SDS011;6115;49.296;10.602;2024-03-22T13:07:47;65.07;;;8.80;;
974;SDS011;6115;49.296;10.602;2024-03-22T13:12:48;68.00;;;9.27;;
974;SDS011;6115;49.296;10.602;2024-03-22T13:17:48;65.33;;;8.83;;
974;SDS011;6115;49.296;10.602;2024-03-22T13:22:49;67.50;;;9.93;;
974;SDS011;6115;49.296;10.602;2024-03-22T13:27:49;64.87;;;9.20;;
974;SDS011;6115;49.296;10.602;2024-03-22T13:32:50;66.00;;;8.40;;
974;SDS011;6115;49.296;10.602;2024-03-22T13:37:51;65.97;;;8.50;;
974;SDS011;6115;49.296;10.602;2024-03-22T13:42:54;64.13;;;8.80;;
974;SDS011;6115;49.296;10.602;2024-03-22T13:47:55;66.50;;;9.50;;
974;SDS011;6115;49.296;10.602;2024-03-22T13:52:56;64.30;;;8.40;;
974;SDS011;6115;49.296;10.602;2024-03-22T13:57:56;64.80;;;8.67;;
974;SDS011;6115;49.296;10.602;2024-03-22T14:02:57;65.27;;;9.57;;
974;SDS011;6115;49.296;10.602;2024-03-22T14:07:58;65.10;;;8.57;;
974;SDS011;6115;49.296;10.602;2024-03-22T14:12:59;65.27;;;8.60;;
974;SDS011;6115;49.296;10.602;2024-03-22T14:18:00;68.80;;;12.90;;
974;SDS011;6115;49.296;10.602;2024-03-22T14:23:00;66.67;;;8.97;;
974;SDS011;6115;49.296;10.602;2024-03-22T14:28:01;65.30;;;9.10;;
974;SDS011;6115;49.296;10.602;2024-03-22T14:33:01;65.67;;;9.20;;
974;SDS011;6115;49.296;10.602;2024-03-22T14:38:03;64.90;;;8.63;;
974;SDS011;6115;49.296;10.602;2024-03-22T14:43:04;66.90;;;9.90;;
974;SDS011;6115;49.296;10.602;2024-03-22T14:48:04;66.37;;;8.87;;
974;SDS011;6115;49.296;10.602;2024-03-22T14:53:06;65.80;;;9.10;;
974;SDS011;6115;49.296;10.602;2024-03-22T14:58:06;65.40;;;8.50;;
974;SDS011;6115;49.296;10.602;2024-03-22T15:03:07;65.60;;;9.27;;
974;SDS011;6115;49.296;10.602;2024-03-22T15:08:07;67.00;;;9.43;;
974;SDS011;6115;49.296;10.602;2024-03-22T15:13:08;66.10;;;9.73;;
974;SDS011;6115;49.296;10.602;2024-03-22T15:18:09;65.87;;;8.90;;
974;SDS011;6115;49.296;10.602;2024-03-22T15:23:11;69.13;;;11.00;;
974;SDS011;6115;49.296;10.602;2024-03-22T15:28:12;67.67;;;10.00;;
974;SDS011;6115;49.296;10.602;2024-03-22T15:33:13;65.60;;;9.83;;
974;SDS011;6115;49.296;10.602;2024-03-22T15:38:14;67.27;;;10.87;;
974;SDS011;6115;49.296;10.602;2024-03-22T15:43:15;66.27;;;9.57;;
974;SDS011;6115;49.296;10.602;2024-03-22T15:48:15;67.83;;;10.30;;
974;SDS011;6115;49.296;10.602;2024-03-22T15:53:19;69.67;;;12.23;;
974;SDS011;6115;49.296;10.602;2024-03-22T15:58:20;65.40;;;9.40;;
974;SDS011;6115;49.296;10.602;2024-03-22T16:03:21;66.27;;;8.87;;
974;SDS011;6115;49.296;10.602;2024-03-22T16:08:21;67.20;;;9.60;;
974;SDS011;6115;49.296;10.602;2024-03-22T16:13:22;68.27;;;11.27;;
974;SDS011;6115;49.296;10.602;2024-03-22T16:18:22;66.10;;;9.47;;
974;SDS011;6115;49.296;10.602;2024-03-22T16:23:23;66.40;;;10.30;;
974;SDS011;6115;49.296;10.602;2024-03-22T16:28:24;67.90;;;10.83;;
974;SDS011;6115;49.296;10.602;2024-03-22T16:33:26;66.77;;;10.47;;
974;SDS011;6115;49.296;10.602;2024-03-22T16:38:27;68.63;;;12.07;;
974;SDS011;6115;49.296;10.602;2024-03-22T16:43:27;68.27;;;12.60;;
974;SDS011;6115;49.296;10.602;2024-03-22T16:48:28;68.90;;;12.87;;
974;SDS011;6115;49.296;10.602;2024-03-22T16:53:29;66.97;;;11.77;;
974;SDS011;6115;49.296;10.602;2024-03-22T16:58:30;69.27;;;14.20;;
974;SDS011;6115;49.296;10.602;2024-03-22T17:03:30;68.40;;;13.20;;
974;SDS011;6115;49.296;10.602;2024-03-22T17:08:31;68.80;;;12.80;;
974;SDS011;6115;49.296;10.602;2024-03-22T17:13:31;70.90;;;13.57;;
974;SDS011;6115;49.296;10.602;2024-03-22T17:18:32;70.10;;;12.37;;
974;SDS011;6115;49.296;10.602;2024-03-22T17:23:35;68.37;;;11.33;;
974;SDS011;6115;49.296;10.602;2024-03-22T17:28:36;68.70;;;11.30;;
974;SDS011;6115;49.296;10.602;2024-03-22T17:33:37;68.73;;;11.10;;
974;SDS011;6115;49.296;10.602;2024-03-22T17:38:37;69.57;;;11.17;;
974;SDS011;6115;49.296;10.602;2024-03-22T17:43:38;68.90;;;11.00;;
974;SDS011;6115;49.296;10.602;2024-03-22T17:48:39;73.73;;;12.30;;
974;SDS011;6115;49.296;10.602;2024-03-22T17:53:40;70.50;;;11.77;;
974;SDS011;6115;49.296;10.602;2024-03-22T17:58:42;73.00;;;12.97;;
974;SDS011;6115;49.296;10.602;2024-03-22T18:03:43;71.13;;;13.37;;
974;SDS011;6115;49.296;10.602;2024-03-22T18:08:44;70.60;;;11.53;;
974;SDS011;6115;49.296;10.602;2024-03-22T18:13:47;71.00;;;11.73;;
974;SDS011;6115;49.296;10.602;2024-03-22T18:18:48;70.70;;;12.57;;
974;SDS011;6115;49.296;10.602;2024-03-22T18:23:48;76.47;;;14.80;;
974;SDS011;6115;49.296;10.602;2024-03-22T18:28:49;71.80;;;14.40;;
974;SDS011;6115;49.296;10.602;2024-03-22T18:33:49;72.87;;;16.03;;
974;SDS011;6115;49.296;10.602;2024-03-22T18:38:50;72.20;;;13.87;;
974;SDS011;6115;49.296;10.602;2024-03-22T18:43:51;75.00;;;15.77;;
974;SDS011;6115;49.296;10.602;2024-03-22T18:48:51;72.47;;;15.27;;
974;SDS011;6115;49.296;10.602;2024-03-22T18:53:52;74.23;;;14.37;;
974;SDS011;6115;49.296;10.602;2024-03-22T18:58:54;72.20;;;14.50;;
974;SDS011;6115;49.296;10.602;2024-03-22T19:03:54;80.03;;;16.97;;
974;SDS011;6115;49.296;10.602;2024-03-22T19:08:55;72.67;;;15.10;;
974;SDS011;6115;49.296;10.602;2024-03-22T19:13:55;75.87;;;15.77;;
974;SDS011;6115;49.296;10.602;2024-03-22T19:18:56;72.47;;;15.60;;
974;SDS011;6115;49.296;10.602;2024-03-22T19:23:57;73.57;;;16.30;;
974;SDS011;6115;49.296;10.602;2024-03-22T19:28:57;74.20;;;17.10;;
974;SDS011;6115;49.296;10.602;2024-03-22T19:33:58;71.33;;;14.17;;
974;SDS011;6115;49.296;10.602;2024-03-22T19:38:58;74.17;;;14.93;;
974;SDS011;6115;49.296;10.602;2024-03-22T19:44:07;76.20;;;15.73;;
974;SDS011;6115;49.296;10.602;2024-03-22T19:49:08;73.37;;;15.00;;
974;SDS011;6115;49.296;10.602;2024-03-22T19:54:08;76.30;;;17.50;;
974;SDS011;6115;49.296;10.602;2024-03-22T19:59:09;76.63;;;16.43;;
974;SDS011;6115;49.296;10.602;2024-03-22T20:04:09;77.47;;;17.10;;
974;SDS011;6115;49.296;10.602;2024-03-22T20:09:10;75.60;;;15.67;;
974;SDS011;6115;49.296;10.602;2024-03-22T20:14:11;73.07;;;15.17;;
974;SDS011;6115;49.296;10.602;2024-03-22T20:19:12;74.67;;;17.17;;
974;SDS011;6115;49.296;10.602;2024-03-22T20:24:12;75.77;;;18.27;;
974;SDS011;6115;49.296;10.602;2024-03-22T20:29:13;74.10;;;15.80;;
974;SDS011;6115;49.296;10.602;2024-03-22T20:34:13;75.67;;;17.07;;
